createdAt,value
2023-03-22T00:02:10.613Z,100.00
2023-03-22T00:04:37.434Z,100.00
2023-03-22T00:07:04.173Z,100.00
2023-03-22T00:09:31.008Z,100.00
2023-03-22T00:11:57.765Z,100.00
2023-03-22T00:14:24.580Z,100.00
2023-03-22T00:16:51.306Z,100.00
2023-03-22T00:19:18.051Z,100.00
2023-03-22T00:21:44.931Z,100.00
2023-03-22T00:24:11.833Z,100.00
2023-03-22T00:26:38.633Z,100.00
2023-03-22T00:29:05.533Z,100.00
2023-03-22T00:31:32.366Z,100.00
2023-03-22T00:33:59.139Z,100.00
2023-03-22T00:36:25.876Z,100.00
2023-03-22T00:38:52.682Z,100.00
2023-03-22T00:41:21.340Z,100.00
2023-03-22T00:43:48.215Z,100.00
2023-03-22T00:46:15.586Z,100.00
2023-03-22T00:48:42.365Z,100.00
2023-03-22T00:51:09.554Z,100.00
2023-03-22T00:53:42.422Z,100.00
2023-03-22T00:56:09.711Z,100.00
2023-03-22T00:58:36.443Z,100.00
2023-03-22T01:01:03.259Z,100.00
2023-03-22T01:03:30.154Z,100.00
2023-03-22T01:05:57.053Z,100.00
2023-03-22T01:08:24.344Z,100.00
2023-03-22T01:10:51.321Z,100.00
2023-03-22T01:13:18.431Z,100.00
2023-03-22T01:15:47.714Z,100.00
2023-03-22T01:18:14.492Z,100.00
2023-03-22T01:20:41.591Z,100.00
2023-03-22T01:23:08.528Z,100.00
2023-03-22T01:25:35.299Z,100.00
2023-03-22T01:28:06.862Z,100.00
2023-03-22T01:30:33.668Z,100.00
2023-03-22T01:33:00.614Z,100.00
2023-03-22T01:35:27.392Z,100.00
2023-03-22T01:37:54.146Z,100.00
2023-03-22T01:40:21.042Z,100.00
2023-03-22T01:42:47.853Z,100.00
2023-03-22T01:45:14.502Z,100.00
2023-03-22T01:47:52.584Z,100.00
2023-03-22T01:50:19.426Z,100.00
2023-03-22T01:52:46.217Z,100.00
2023-03-22T01:55:12.994Z,100.00
2023-03-22T01:57:39.714Z,100.00
2023-03-22T02:00:16.051Z,100.00
2023-03-22T02:02:43.755Z,100.00
2023-03-22T02:05:12.371Z,100.00
2023-03-22T02:07:40.043Z,100.00
2023-03-22T02:10:25.784Z,100.00
2023-03-22T02:13:11.773Z,100.00
2023-03-22T02:16:16.751Z,100.00
2023-03-22T02:18:53.885Z,100.00
2023-03-22T02:21:58.064Z,100.00
2023-03-22T02:24:49.621Z,100.00
2023-03-22T02:27:21.254Z,100.00
2023-03-22T02:30:25.643Z,100.00
2023-03-22T02:33:31.244Z,100.00
2023-03-22T02:36:36.299Z,100.00
2023-03-22T02:39:08.195Z,100.00
2023-03-22T02:41:50.674Z,100.00
2023-03-22T02:44:37.552Z,100.00
2023-03-22T02:47:29.752Z,100.00
2023-03-22T02:49:58.856Z,100.00
2023-03-22T02:52:53.765Z,100.00
2023-03-22T02:55:38.778Z,100.00
2023-03-22T02:58:11.613Z,100.00
2023-03-22T03:00:39.246Z,100.00
2023-03-22T03:03:12.730Z,100.00
2023-03-22T03:05:43.744Z,100.00
2023-03-22T03:08:11.051Z,100.00
2023-03-22T03:10:39.644Z,100.00
2023-03-22T03:13:06.551Z,100.00
2023-03-22T03:15:33.294Z,100.00
2023-03-22T03:18:13.849Z,100.00
2023-03-22T03:21:08.864Z,100.00
2023-03-22T03:23:53.823Z,100.00
2023-03-22T03:26:32.757Z,100.00
2023-03-22T03:29:27.503Z,100.00
2023-03-22T03:32:12.824Z,100.00
2023-03-22T03:34:52.873Z,100.00
2023-03-22T03:37:22.038Z,100.00
2023-03-22T03:39:57.360Z,100.00
2023-03-22T03:42:25.563Z,100.00
2023-03-22T03:44:52.328Z,100.00
2023-03-22T03:47:19.112Z,100.00
2023-03-22T03:49:46.279Z,100.00
2023-03-22T03:52:14.104Z,100.00
2023-03-22T03:54:41.185Z,100.00
2023-03-22T03:57:07.935Z,100.00
2023-03-22T03:59:34.675Z,100.00
2023-03-22T04:02:01.475Z,100.00
2023-03-22T04:04:29.104Z,100.00
2023-03-22T04:06:57.236Z,100.00
2023-03-22T04:09:25.205Z,100.00
2023-03-22T04:11:52.054Z,100.00
2023-03-22T04:14:18.937Z,100.00
2023-03-22T04:16:45.729Z,100.00
2023-03-22T04:19:12.764Z,100.00
2023-03-22T04:21:39.506Z,100.00
2023-03-22T04:24:06.378Z,100.00
2023-03-22T04:26:33.237Z,100.00
2023-03-22T04:29:00.032Z,100.00
2023-03-22T04:31:27.194Z,100.00
2023-03-22T04:33:56.707Z,100.00
2023-03-22T04:36:24.193Z,100.00
2023-03-22T04:38:51.653Z,100.00
2023-03-22T04:41:18.713Z,100.00
2023-03-22T04:43:47.160Z,100.00
2023-03-22T04:46:14.150Z,100.00
2023-03-22T04:48:41.494Z,100.00
2023-03-22T04:51:09.315Z,100.00
2023-03-22T04:53:39.495Z,100.00
2023-03-22T04:56:07.804Z,100.00
2023-03-22T04:58:35.394Z,100.00
2023-03-22T05:01:02.346Z,100.00
2023-03-22T05:03:29.207Z,100.00
2023-03-22T05:05:57.802Z,100.00
2023-03-22T05:08:25.753Z,100.00
2023-03-22T05:10:53.703Z,100.00
2023-03-22T05:13:20.821Z,100.00
2023-03-22T05:15:49.186Z,100.00
2023-03-22T05:18:16.666Z,100.00
2023-03-22T05:20:43.563Z,100.00
2023-03-22T05:23:10.389Z,100.00
2023-03-22T05:25:37.341Z,100.00
2023-03-22T05:28:04.406Z,100.00
2023-03-22T05:30:31.726Z,100.00
2023-03-22T05:33:03.288Z,100.00
2023-03-22T05:35:34.105Z,100.00
2023-03-22T05:38:01.262Z,100.00
2023-03-22T05:40:28.156Z,100.00
2023-03-22T05:42:55.647Z,100.00
2023-03-22T05:45:22.606Z,100.00
2023-03-22T05:47:49.533Z,100.00
2023-03-22T05:50:18.605Z,100.00
2023-03-22T05:52:45.697Z,100.00
2023-03-22T05:55:13.800Z,100.00
2023-03-22T05:57:41.087Z,100.00
2023-03-22T06:00:13.309Z,100.00
2023-03-22T06:02:41.187Z,100.00
2023-03-22T06:05:09.393Z,100.00
2023-03-22T06:07:36.393Z,100.00
2023-03-22T06:10:04.201Z,100.00
2023-03-22T06:12:31.498Z,100.00
2023-03-22T06:14:58.379Z,100.00
2023-03-22T06:17:25.675Z,100.00
2023-03-22T06:19:53.311Z,100.00
2023-03-22T06:22:20.285Z,100.00
2023-03-22T06:24:47.195Z,100.00
2023-03-22T06:27:14.149Z,100.00
2023-03-22T06:29:40.951Z,100.00
2023-03-22T06:32:07.707Z,100.00
2023-03-22T06:34:34.485Z,100.00
2023-03-22T06:37:01.316Z,100.00
2023-03-22T06:39:28.095Z,100.00
2023-03-22T06:41:54.841Z,100.00
2023-03-22T06:44:22.681Z,100.00
2023-03-22T06:46:49.418Z,100.00
2023-03-22T06:49:16.921Z,100.00
2023-03-22T06:51:43.652Z,100.00
2023-03-22T06:54:12.735Z,100.00
2023-03-22T06:56:39.478Z,100.00
2023-03-22T06:59:06.268Z,100.00
2023-03-22T07:01:33.077Z,100.00
2023-03-22T07:03:59.927Z,100.00
2023-03-22T07:06:26.734Z,100.00
2023-03-22T07:08:53.481Z,100.00
2023-03-22T07:11:20.405Z,100.00
2023-03-22T07:13:47.183Z,100.00
2023-03-22T07:16:14.017Z,100.00
2023-03-22T07:18:40.926Z,100.00
2023-03-22T07:21:07.727Z,100.00
2023-03-22T07:23:34.486Z,100.00
2023-03-22T07:26:01.292Z,100.00
2023-03-22T07:28:28.279Z,97.34
2023-03-22T07:31:11.593Z,94.10
2023-03-22T07:33:39.141Z,91.68
2023-03-22T07:36:06.910Z,92.46
2023-03-22T07:38:34.167Z,91.15
2023-03-22T07:41:00.965Z,90.20
2023-03-22T07:43:27.774Z,88.35
2023-03-22T07:45:54.595Z,85.58
2023-03-22T07:48:22.794Z,83.37
2023-03-22T07:50:49.850Z,78.62
2023-03-22T07:53:16.653Z,76.19
2023-03-22T07:55:43.465Z,75.21
2023-03-22T07:58:10.603Z,75.80
2023-03-22T08:00:37.685Z,76.79
2023-03-22T08:03:04.676Z,77.34
2023-03-22T08:05:31.464Z,76.30
2023-03-22T08:07:58.250Z,74.14
2023-03-22T08:10:25.001Z,73.92
2023-03-22T08:12:51.727Z,73.44
2023-03-22T08:15:19.237Z,72.69
2023-03-22T08:17:46.626Z,73.06
2023-03-22T08:20:13.537Z,73.65
2023-03-22T08:22:40.348Z,74.27
2023-03-22T08:25:07.354Z,74.62
2023-03-22T08:27:34.115Z,73.79
2023-03-22T08:30:00.964Z,72.77
2023-03-22T08:32:27.797Z,72.54
2023-03-22T08:34:54.527Z,72.65
2023-03-22T08:37:21.366Z,71.89
2023-03-22T08:39:48.109Z,71.24
2023-03-22T08:42:14.877Z,70.20
2023-03-22T08:44:41.653Z,69.58
2023-03-22T08:47:08.384Z,69.79
2023-03-22T08:49:35.729Z,69.54
2023-03-22T08:52:02.558Z,70.34
2023-03-22T08:54:33.424Z,68.56
2023-03-22T08:57:00.714Z,66.46
2023-03-22T08:59:27.964Z,64.16
2023-03-22T09:01:54.780Z,62.07
2023-03-22T09:04:21.639Z,60.11
2023-03-22T09:06:48.436Z,56.05
2023-03-22T09:09:15.175Z,55.33
2023-03-22T09:11:42.955Z,56.03
2023-03-22T09:14:10.016Z,56.64
2023-03-22T09:16:36.944Z,57.16
2023-03-22T09:19:03.798Z,55.78
2023-03-22T09:21:30.694Z,53.19
2023-03-22T09:23:57.563Z,52.86
2023-03-22T09:26:25.699Z,52.24
2023-03-22T09:28:52.629Z,52.82
2023-03-22T09:31:20.684Z,52.90
2023-03-22T09:33:47.679Z,53.03
2023-03-22T09:36:14.497Z,54.42
2023-03-22T09:38:42.143Z,55.50
2023-03-22T09:41:11.870Z,55.74
2023-03-22T09:43:40.594Z,56.85
2023-03-22T09:46:11.719Z,56.71
2023-03-22T09:48:39.214Z,58.01
2023-03-22T09:51:07.794Z,58.04
2023-03-22T09:53:34.626Z,58.85
2023-03-22T09:56:23.205Z,59.21
2023-03-22T09:59:00.392Z,59.19
2023-03-22T10:01:37.762Z,59.71
2023-03-22T10:04:42.003Z,57.72
2023-03-22T10:07:46.087Z,57.10
2023-03-22T10:10:13.426Z,55.16
2023-03-22T10:12:44.962Z,55.37
2023-03-22T10:15:18.864Z,53.76
2023-03-22T10:17:48.229Z,52.83
2023-03-22T10:20:29.214Z,53.21
2023-03-22T10:22:56.400Z,53.32
2023-03-22T10:25:31.131Z,53.24
2023-03-22T10:27:59.001Z,51.38
2023-03-22T10:30:26.829Z,50.67
2023-03-22T10:33:10.318Z,52.07
2023-03-22T10:35:37.135Z,50.29
2023-03-22T10:38:04.882Z,48.25
2023-03-22T10:40:33.101Z,47.58
2023-03-22T10:43:06.555Z,44.77
2023-03-22T10:45:34.121Z,42.37
2023-03-22T10:48:11.994Z,42.03
2023-03-22T10:50:40.286Z,39.41
2023-03-22T10:53:19.707Z,38.75
2023-03-22T10:55:46.518Z,38.79
2023-03-22T10:58:15.711Z,38.64
2023-03-22T11:00:50.116Z,37.94
2023-03-22T11:03:48.837Z,37.41
2023-03-22T11:06:17.775Z,38.46
2023-03-22T11:08:45.640Z,38.22
2023-03-22T11:11:32.750Z,37.56
2023-03-22T11:14:14.598Z,37.71
2023-03-22T11:16:49.773Z,40.85
2023-03-22T11:19:26.685Z,42.01
2023-03-22T11:21:54.791Z,41.47
2023-03-22T11:24:22.276Z,43.46
2023-03-22T11:27:21.547Z,45.97
2023-03-22T11:29:50.481Z,45.94
2023-03-22T11:32:27.354Z,45.07
2023-03-22T11:35:01.543Z,42.10
2023-03-22T11:37:28.413Z,41.36
2023-03-22T11:39:59.912Z,41.65
2023-03-22T11:42:26.764Z,43.43
2023-03-22T11:44:54.184Z,42.70
2023-03-22T11:47:20.942Z,42.94
2023-03-22T11:49:51.156Z,43.32
2023-03-22T11:52:19.455Z,44.48
2023-03-22T11:54:46.460Z,44.92
2023-03-22T11:57:24.915Z,44.12
2023-03-22T12:00:01.582Z,42.94
2023-03-22T12:02:33.416Z,43.29
2023-03-22T12:05:07.237Z,44.15
2023-03-22T12:07:34.694Z,45.46
2023-03-22T12:10:29.774Z,47.01
2023-03-22T12:12:59.844Z,48.15
2023-03-22T12:15:29.465Z,47.14
2023-03-22T12:18:08.902Z,46.06
2023-03-22T12:20:55.295Z,45.49
2023-03-22T12:23:29.744Z,45.27
2023-03-22T12:26:24.217Z,43.16
2023-03-22T12:28:59.302Z,43.02
2023-03-22T12:31:29.938Z,43.42
2023-03-22T12:33:58.469Z,43.19
2023-03-22T12:36:48.667Z,44.09
2023-03-22T12:39:40.927Z,44.40
2023-03-22T12:42:27.424Z,45.74
2023-03-22T12:45:05.533Z,45.82
2023-03-22T12:47:38.486Z,46.56
2023-03-22T12:50:38.816Z,47.77
2023-03-22T12:53:06.614Z,49.85
2023-03-22T12:55:35.844Z,50.20
2023-03-22T12:58:02.806Z,50.89
2023-03-22T13:00:33.879Z,51.09
2023-03-22T13:03:17.372Z,51.44
2023-03-22T13:05:50.784Z,51.92
2023-03-22T13:08:21.700Z,51.98
2023-03-22T13:11:15.950Z,53.61
2023-03-22T13:13:47.257Z,53.80
2023-03-22T13:16:20.170Z,54.46
2023-03-22T13:18:58.440Z,55.23
2023-03-22T13:21:30.146Z,56.18
2023-03-22T13:24:02.492Z,58.17
2023-03-22T13:26:35.570Z,58.47
2023-03-22T13:29:22.127Z,59.67
2023-03-22T13:31:52.018Z,59.59
2023-03-22T13:34:20.576Z,59.75
2023-03-22T13:36:55.221Z,61.52
2023-03-22T13:39:23.343Z,61.75
2023-03-22T13:41:52.307Z,62.62
2023-03-22T13:44:21.584Z,63.73
2023-03-22T13:46:52.150Z,64.37
2023-03-22T13:49:37.266Z,64.58
2023-03-22T13:52:05.066Z,64.95
2023-03-22T13:54:41.482Z,64.94
2023-03-22T13:57:37.684Z,64.71
2023-03-22T14:00:20.780Z,65.02
2023-03-22T14:02:48.627Z,64.39
2023-03-22T14:05:16.858Z,63.33
2023-03-22T14:07:48.568Z,63.53
2023-03-22T14:10:23.164Z,62.46
2023-03-22T14:12:52.746Z,61.43
2023-03-22T14:15:25.287Z,62.42
2023-03-22T14:18:29.574Z,63.16
2023-03-22T14:21:18.079Z,65.22
